Country
Station

 

Weather  for  Willoughby  -  United States    United States

  
4 °C (39 °F)
    
 
 

Current METAR for Willoughby is :

KLNN 192335Z AUTO 00000KT 10SM SCT060 04/M08 A3036 RMK AO1 T00361080

 

This is a report for Willoughby - United States.
 
The report was made 21 minutes ago, at 23:35 UTC .
The wind was calm.
 
The temperature was 4 °C (39 °F), with a dew-point at -8 °C (18 °F).
The atmospheric pressure was 1028 hPa (30.36 inHg).
The relative humidity was 41.1%.
 
There were scattered clouds at a height of 1829 meters (6000 feet).
 
The overall visibility was 16.1 kilometers (10.0 miles).
 

 
 
 
 

Country :   A   B   C   D   E   F   G   H   I   J   K   L   M   N   O   P   Q   R   S   T   U   V   W   Y   Z

 

Site Info  |  Disclaimer  |  Credits  |  Privacy
Contact us  |  Add to favorites
© 2013-2019 METARs - All rights reserved